sensor_id;sensor_type;location;lat;lon;timestamp;P1;durP1;ratioP1;P2;durP2;ratioP2
69401;SDS011;56589;51.992;5.924;2022-11-04T00:00:39;5.93;;;3.10;;
69401;SDS011;56589;51.992;5.924;2022-11-04T00:03:04;6.10;;;3.53;;
69401;SDS011;56589;51.992;5.924;2022-11-04T00:05:30;6.68;;;3.60;;
69401;SDS011;56589;51.992;5.924;2022-11-04T00:07:56;6.70;;;3.78;;
69401;SDS011;56589;51.992;5.924;2022-11-04T00:10:22;6.13;;;3.40;;
69401;SDS011;56589;51.992;5.924;2022-11-04T00:12:50;6.25;;;3.97;;
69401;SDS011;56589;51.992;5.924;2022-11-04T00:15:19;7.53;;;5.05;;
69401;SDS011;56589;51.992;5.924;2022-11-04T00:17:45;8.55;;;4.60;;
69401;SDS011;56589;51.992;5.924;2022-11-04T00:20:11;7.15;;;4.55;;
69401;SDS011;56589;51.992;5.924;2022-11-04T00:22:37;8.52;;;5.10;;
69401;SDS011;56589;51.992;5.924;2022-11-04T00:25:05;7.55;;;5.25;;
69401;SDS011;56589;51.992;5.924;2022-11-04T00:27:32;6.22;;;4.85;;
69401;SDS011;56589;51.992;5.924;2022-11-04T00:29:58;11.02;;;7.25;;
69401;SDS011;56589;51.992;5.924;2022-11-04T00:32:27;9.98;;;6.93;;
69401;SDS011;56589;51.992;5.924;2022-11-04T00:34:52;12.70;;;7.38;;
69401;SDS011;56589;51.992;5.924;2022-11-04T00:37:18;11.98;;;7.20;;
69401;SDS011;56589;51.992;5.924;2022-11-04T00:39:44;11.82;;;8.05;;
69401;SDS011;56589;51.992;5.924;2022-11-04T00:42:10;15.77;;;9.57;;
69401;SDS011;56589;51.992;5.924;2022-11-04T00:44:35;14.68;;;10.15;;
69401;SDS011;56589;51.992;5.924;2022-11-04T00:47:01;12.07;;;10.23;;
69401;SDS011;56589;51.992;5.924;2022-11-04T00:49:30;20.75;;;10.93;;
69401;SDS011;56589;51.992;5.924;2022-11-04T00:51:55;14.35;;;8.88;;
69401;SDS011;56589;51.992;5.924;2022-11-04T00:54:21;8.80;;;7.78;;
69401;SDS011;56589;51.992;5.924;2022-11-04T00:56:47;10.27;;;7.78;;
69401;SDS011;56589;51.992;5.924;2022-11-04T00:59:13;8.90;;;6.65;;
69401;SDS011;56589;51.992;5.924;2022-11-04T01:01:39;8.93;;;6.22;;
69401;SDS011;56589;51.992;5.924;2022-11-04T01:04:05;6.22;;;5.22;;
69401;SDS011;56589;51.992;5.924;2022-11-04T01:06:33;6.60;;;4.50;;
69401;SDS011;56589;51.992;5.924;2022-11-04T01:09:00;4.20;;;3.13;;
69401;SDS011;56589;51.992;5.924;2022-11-04T01:11:29;5.43;;;3.05;;
69401;SDS011;56589;51.992;5.924;2022-11-04T01:13:55;4.50;;;2.60;;
69401;SDS011;56589;51.992;5.924;2022-11-04T01:16:22;3.22;;;2.20;;
69401;SDS011;56589;51.992;5.924;2022-11-04T01:18:49;6.05;;;2.03;;
69401;SDS011;56589;51.992;5.924;2022-11-04T01:21:16;4.18;;;1.73;;
69401;SDS011;56589;51.992;5.924;2022-11-04T01:23:44;4.05;;;1.90;;
69401;SDS011;56589;51.992;5.924;2022-11-04T01:26:12;3.75;;;2.00;;
69401;SDS011;56589;51.992;5.924;2022-11-04T01:28:42;2.42;;;1.70;;
69401;SDS011;56589;51.992;5.924;2022-11-04T01:31:09;2.25;;;1.60;;
69401;SDS011;56589;51.992;5.924;2022-11-04T01:33:37;4.88;;;1.52;;
69401;SDS011;56589;51.992;5.924;2022-11-04T01:36:04;3.72;;;1.45;;
69401;SDS011;56589;51.992;5.924;2022-11-04T01:38:33;1.90;;;1.48;;
69401;SDS011;56589;51.992;5.924;2022-11-04T01:41:02;2.60;;;1.17;;
69401;SDS011;56589;51.992;5.924;2022-11-04T01:43:41;3.40;;;0.90;;
69401;SDS011;56589;51.992;5.924;2022-11-04T01:46:10;1.45;;;1.20;;
69401;SDS011;56589;51.992;5.924;2022-11-04T01:48:47;3.83;;;1.45;;
69401;SDS011;56589;51.992;5.924;2022-11-04T01:51:15;3.10;;;1.50;;
69401;SDS011;56589;51.992;5.924;2022-11-04T01:53:41;2.42;;;1.50;;
69401;SDS011;56589;51.992;5.924;2022-11-04T01:56:12;3.05;;;1.95;;
69401;SDS011;56589;51.992;5.924;2022-11-04T01:58:42;3.85;;;2.05;;
69401;SDS011;56589;51.992;5.924;2022-11-04T02:01:13;3.28;;;2.15;;
69401;SDS011;56589;51.992;5.924;2022-11-04T02:03:40;6.15;;;2.47;;
69401;SDS011;56589;51.992;5.924;2022-11-04T02:06:13;3.75;;;2.95;;
69401;SDS011;56589;51.992;5.924;2022-11-04T02:08:42;6.95;;;3.50;;
69401;SDS011;56589;51.992;5.924;2022-11-04T02:11:13;5.82;;;4.43;;
69401;SDS011;56589;51.992;5.924;2022-11-04T02:13:39;8.15;;;5.78;;
69401;SDS011;56589;51.992;5.924;2022-11-04T02:16:08;8.70;;;6.28;;
69401;SDS011;56589;51.992;5.924;2022-11-04T02:18:52;9.88;;;7.35;;
69401;SDS011;56589;51.992;5.924;2022-11-04T02:21:44;11.20;;;8.98;;
69401;SDS011;56589;51.992;5.924;2022-11-04T02:24:52;13.85;;;10.38;;
69401;SDS011;56589;51.992;5.924;2022-11-04T02:27:41;16.20;;;10.82;;
69401;SDS011;56589;51.992;5.924;2022-11-04T02:30:39;18.30;;;12.07;;
69401;SDS011;56589;51.992;5.924;2022-11-04T02:33:16;15.68;;;12.93;;
69401;SDS011;56589;51.992;5.924;2022-11-04T02:35:52;20.23;;;14.15;;
69401;SDS011;56589;51.992;5.924;2022-11-04T02:38:31;18.60;;;13.32;;
69401;SDS011;56589;51.992;5.924;2022-11-04T02:41:20;17.05;;;13.73;;
69401;SDS011;56589;51.992;5.924;2022-11-04T02:44:07;19.52;;;13.57;;
69401;SDS011;56589;51.992;5.924;2022-11-04T02:46:48;23.25;;;14.30;;
69401;SDS011;56589;51.992;5.924;2022-11-04T02:49:21;18.08;;;14.60;;
69401;SDS011;56589;51.992;5.924;2022-11-04T02:51:57;23.75;;;15.48;;
69401;SDS011;56589;51.992;5.924;2022-11-04T02:54:29;20.97;;;15.13;;
69401;SDS011;56589;51.992;5.924;2022-11-04T02:57:04;23.85;;;17.27;;
69401;SDS011;56589;51.992;5.924;2022-11-04T02:59:38;19.83;;;15.75;;
69401;SDS011;56589;51.992;5.924;2022-11-04T03:02:15;20.38;;;15.73;;
69401;SDS011;56589;51.992;5.924;2022-11-04T03:04:50;21.75;;;16.02;;
69401;SDS011;56589;51.992;5.924;2022-11-04T03:07:20;24.63;;;16.30;;
69401;SDS011;56589;51.992;5.924;2022-11-04T03:12:25;23.60;;;15.73;;
69401;SDS011;56589;51.992;5.924;2022-11-04T03:15:01;21.30;;;15.98;;
69401;SDS011;56589;51.992;5.924;2022-11-04T03:17:39;22.33;;;16.25;;
69401;SDS011;56589;51.992;5.924;2022-11-04T03:20:12;23.70;;;16.58;;
69401;SDS011;56589;51.992;5.924;2022-11-04T03:22:47;20.40;;;16.60;;
69401;SDS011;56589;51.992;5.924;2022-11-04T03:25:13;23.15;;;16.73;;
69401;SDS011;56589;51.992;5.924;2022-11-04T03:27:42;21.67;;;16.30;;
69401;SDS011;56589;51.992;5.924;2022-11-04T03:30:18;25.42;;;17.23;;
69401;SDS011;56589;51.992;5.924;2022-11-04T03:32:50;22.98;;;15.85;;
69401;SDS011;56589;51.992;5.924;2022-11-04T03:35:29;21.40;;;16.83;;
69401;SDS011;56589;51.992;5.924;2022-11-04T03:37:56;22.02;;;15.48;;
69401;SDS011;56589;51.992;5.924;2022-11-04T03:40:22;20.35;;;14.88;;
69401;SDS011;56589;51.992;5.924;2022-11-04T03:42:52;21.63;;;15.50;;
69401;SDS011;56589;51.992;5.924;2022-11-04T03:45:23;20.23;;;15.82;;
69401;SDS011;56589;51.992;5.924;2022-11-04T03:47:52;19.75;;;15.20;;
69401;SDS011;56589;51.992;5.924;2022-11-04T03:50:22;19.52;;;14.80;;
69401;SDS011;56589;51.992;5.924;2022-11-04T03:52:52;17.30;;;13.27;;
69401;SDS011;56589;51.992;5.924;2022-11-04T03:55:19;20.80;;;14.20;;
69401;SDS011;56589;51.992;5.924;2022-11-04T03:57:49;22.70;;;14.30;;
69401;SDS011;56589;51.992;5.924;2022-11-04T04:02:57;19.27;;;13.82;;
69401;SDS011;56589;51.992;5.924;2022-11-04T04:05:31;20.92;;;13.05;;
69401;SDS011;56589;51.992;5.924;2022-11-04T04:08:07;24.73;;;13.50;;
69401;SDS011;56589;51.992;5.924;2022-11-04T04:10:47;19.88;;;13.75;;
69401;SDS011;56589;51.992;5.924;2022-11-04T04:13:29;19.40;;;12.70;;
69401;SDS011;56589;51.992;5.924;2022-11-04T04:16:06;18.95;;;12.57;;
69401;SDS011;56589;51.992;5.924;2022-11-04T04:18:42;19.70;;;13.02;;
69401;SDS011;56589;51.992;5.924;2022-11-04T04:21:19;19.15;;;12.48;;
69401;SDS011;56589;51.992;5.924;2022-11-04T04:23:52;18.00;;;11.57;;
69401;SDS011;56589;51.992;5.924;2022-11-04T04:26:22;20.25;;;10.50;;
69401;SDS011;56589;51.992;5.924;2022-11-04T04:28:50;15.88;;;10.98;;
69401;SDS011;56589;51.992;5.924;2022-11-04T04:31:20;14.73;;;9.98;;
69401;SDS011;56589;51.992;5.924;2022-11-04T04:33:52;14.27;;;9.43;;
69401;SDS011;56589;51.992;5.924;2022-11-04T04:36:18;16.48;;;8.52;;
69401;SDS011;56589;51.992;5.924;2022-11-04T04:38:44;13.15;;;8.15;;
69401;SDS011;56589;51.992;5.924;2022-11-04T04:41:11;16.73;;;8.27;;
69401;SDS011;56589;51.992;5.924;2022-11-04T04:43:43;12.88;;;7.95;;
69401;SDS011;56589;51.992;5.924;2022-11-04T04:46:10;12.05;;;7.18;;
69401;SDS011;56589;51.992;5.924;2022-11-04T04:48:37;12.55;;;6.53;;
69401;SDS011;56589;51.992;5.924;2022-11-04T04:51:05;15.25;;;6.75;;
69401;SDS011;56589;51.992;5.924;2022-11-04T04:53:32;9.77;;;6.18;;
69401;SDS011;56589;51.992;5.924;2022-11-04T04:55:58;14.35;;;6.88;;
69401;SDS011;56589;51.992;5.924;2022-11-04T04:58:23;14.70;;;6.72;;
69401;SDS011;56589;51.992;5.924;2022-11-04T05:00:49;11.77;;;6.22;;
69401;SDS011;56589;51.992;5.924;2022-11-04T05:03:15;11.70;;;7.00;;
69401;SDS011;56589;51.992;5.924;2022-11-04T05:05:40;10.63;;;6.28;;
69401;SDS011;56589;51.992;5.924;2022-11-04T05:08:09;14.93;;;7.13;;
69401;SDS011;56589;51.992;5.924;2022-11-04T05:10:34;9.38;;;6.57;;
69401;SDS011;56589;51.992;5.924;2022-11-04T05:13:00;17.60;;;6.97;;
69401;SDS011;56589;51.992;5.924;2022-11-04T05:15:27;13.38;;;7.82;;
69401;SDS011;56589;51.992;5.924;2022-11-04T05:17:54;11.93;;;6.22;;
69401;SDS011;56589;51.992;5.924;2022-11-04T05:20:21;12.63;;;6.28;;
69401;SDS011;56589;51.992;5.924;2022-11-04T05:22:48;11.50;;;5.82;;
69401;SDS011;56589;51.992;5.924;2022-11-04T05:25:16;10.82;;;5.93;;
69401;SDS011;56589;51.992;5.924;2022-11-04T05:27:42;11.10;;;6.30;;
69401;SDS011;56589;51.992;5.924;2022-11-04T05:30:08;11.73;;;6.18;;
69401;SDS011;56589;51.992;5.924;2022-11-04T05:32:35;12.95;;;6.38;;
69401;SDS011;56589;51.992;5.924;2022-11-04T05:35:01;11.30;;;6.28;;
69401;SDS011;56589;51.992;5.924;2022-11-04T05:37:27;11.65;;;6.32;;
69401;SDS011;56589;51.992;5.924;2022-11-04T05:39:53;13.10;;;6.30;;
69401;SDS011;56589;51.992;5.924;2022-11-04T05:42:21;13.23;;;6.35;;
69401;SDS011;56589;51.992;5.924;2022-11-04T05:44:47;12.20;;;6.38;;
69401;SDS011;56589;51.992;5.924;2022-11-04T05:47:12;17.38;;;5.80;;
69401;SDS011;56589;51.992;5.924;2022-11-04T05:49:38;11.57;;;6.55;;
69401;SDS011;56589;51.992;5.924;2022-11-04T05:52:04;14.68;;;6.03;;
69401;SDS011;56589;51.992;5.924;2022-11-04T05:54:30;13.57;;;6.35;;
69401;SDS011;56589;51.992;5.924;2022-11-04T05:56:56;13.18;;;6.28;;
69401;SDS011;56589;51.992;5.924;2022-11-04T05:59:24;13.60;;;6.90;;
69401;SDS011;56589;51.992;5.924;2022-11-04T06:01:50;13.13;;;6.10;;
69401;SDS011;56589;51.992;5.924;2022-11-04T06:04:16;17.10;;;5.57;;
69401;SDS011;56589;51.992;5.924;2022-11-04T06:06:43;8.98;;;5.60;;
69401;SDS011;56589;51.992;5.924;2022-11-04T06:09:10;12.48;;;5.65;;
69401;SDS011;56589;51.992;5.924;2022-11-04T06:11:36;9.57;;;5.60;;
69401;SDS011;56589;51.992;5.924;2022-11-04T06:14:03;14.00;;;5.43;;
69401;SDS011;56589;51.992;5.924;2022-11-04T06:16:31;11.57;;;5.22;;
69401;SDS011;56589;51.992;5.924;2022-11-04T06:18:57;15.65;;;6.00;;
69401;SDS011;56589;51.992;5.924;2022-11-04T06:21:23;12.32;;;5.00;;
69401;SDS011;56589;51.992;5.924;2022-11-04T06:23:53;8.55;;;5.30;;
69401;SDS011;56589;51.992;5.924;2022-11-04T06:26:21;12.07;;;4.93;;
69401;SDS011;56589;51.992;5.924;2022-11-04T06:28:48;13.85;;;5.25;;
69401;SDS011;56589;51.992;5.924;2022-11-04T06:31:14;11.32;;;5.28;;
69401;SDS011;56589;51.992;5.924;2022-11-04T06:33:43;8.55;;;4.53;;
69401;SDS011;56589;51.992;5.924;2022-11-04T06:36:11;15.52;;;5.15;;
69401;SDS011;56589;51.992;5.924;2022-11-04T06:38:39;10.07;;;4.45;;
69401;SDS011;56589;51.992;5.924;2022-11-04T06:41:06;9.82;;;3.90;;
69401;SDS011;56589;51.992;5.924;2022-11-04T06:43:36;10.82;;;3.72;;
69401;SDS011;56589;51.992;5.924;2022-11-04T06:46:01;12.27;;;4.10;;
69401;SDS011;56589;51.992;5.924;2022-11-04T06:48:28;7.53;;;3.35;;
69401;SDS011;56589;51.992;5.924;2022-11-04T06:50:57;13.68;;;3.72;;
69401;SDS011;56589;51.992;5.924;2022-11-04T06:53:25;11.23;;;4.03;;
69401;SDS011;56589;51.992;5.924;2022-11-04T06:55:50;11.63;;;4.60;;
69401;SDS011;56589;51.992;5.924;2022-11-04T06:58:17;9.45;;;3.60;;
69401;SDS011;56589;51.992;5.924;2022-11-04T07:00:43;8.85;;;4.07;;
69401;SDS011;56589;51.992;5.924;2022-11-04T07:03:08;12.73;;;5.28;;
69401;SDS011;56589;51.992;5.924;2022-11-04T07:05:34;7.03;;;3.50;;
69401;SDS011;56589;51.992;5.924;2022-11-04T07:08:03;10.20;;;3.75;;
69401;SDS011;56589;51.992;5.924;2022-11-04T07:10:29;9.13;;;3.90;;
69401;SDS011;56589;51.992;5.924;2022-11-04T07:12:55;10.70;;;3.83;;
69401;SDS011;56589;51.992;5.924;2022-11-04T07:15:20;17.10;;;3.58;;
69401;SDS011;56589;51.992;5.924;2022-11-04T07:17:46;15.25;;;3.83;;
69401;SDS011;56589;51.992;5.924;2022-11-04T07:20:12;10.23;;;4.75;;
69401;SDS011;56589;51.992;5.924;2022-11-04T07:22:38;9.98;;;4.13;;
69401;SDS011;56589;51.992;5.924;2022-11-04T07:25:07;9.40;;;3.65;;
69401;SDS011;56589;51.992;5.924;2022-11-04T07:27:33;11.35;;;3.90;;
69401;SDS011;56589;51.992;5.924;2022-11-04T07:29:59;10.75;;;3.90;;
69401;SDS011;56589;51.992;5.924;2022-11-04T07:32:25;11.23;;;4.03;;
69401;SDS011;56589;51.992;5.924;2022-11-04T07:34:51;12.50;;;3.42;;
69401;SDS011;56589;51.992;5.924;2022-11-04T07:37:16;12.18;;;3.47;;
69401;SDS011;56589;51.992;5.924;2022-11-04T07:39:42;9.95;;;3.45;;
69401;SDS011;56589;51.992;5.924;2022-11-04T07:42:11;9.73;;;3.80;;
69401;SDS011;56589;51.992;5.924;2022-11-04T07:44:38;12.57;;;3.70;;
69401;SDS011;56589;51.992;5.924;2022-11-04T07:47:04;10.55;;;3.85;;
69401;SDS011;56589;51.992;5.924;2022-11-04T07:49:30;11.75;;;4.28;;
69401;SDS011;56589;51.992;5.924;2022-11-04T07:51:56;9.80;;;4.03;;
69401;SDS011;56589;51.992;5.924;2022-11-04T07:54:22;8.30;;;3.53;;
69401;SDS011;56589;51.992;5.924;2022-11-04T07:56:47;12.05;;;3.70;;
69401;SDS011;56589;51.992;5.924;2022-11-04T07:59:16;8.65;;;3.40;;
69401;SDS011;56589;51.992;5.924;2022-11-04T08:01:41;8.15;;;3.97;;
69401;SDS011;56589;51.992;5.924;2022-11-04T08:04:07;9.43;;;4.47;;
69401;SDS011;56589;51.992;5.924;2022-11-04T08:06:33;11.65;;;4.00;;
69401;SDS011;56589;51.992;5.924;2022-11-04T08:08:59;8.90;;;3.60;;
69401;SDS011;56589;51.992;5.924;2022-11-04T08:11:25;9.50;;;4.53;;
69401;SDS011;56589;51.992;5.924;2022-11-04T08:13:51;12.27;;;4.10;;
69401;SDS011;56589;51.992;5.924;2022-11-04T08:16:20;11.18;;;3.78;;
69401;SDS011;56589;51.992;5.924;2022-11-04T08:18:48;16.60;;;4.80;;
69401;SDS011;56589;51.992;5.924;2022-11-04T08:21:16;13.00;;;4.20;;
69401;SDS011;56589;51.992;5.924;2022-11-04T08:23:43;12.98;;;3.85;;
69401;SDS011;56589;51.992;5.924;2022-11-04T08:26:09;13.18;;;4.15;;
69401;SDS011;56589;51.992;5.924;2022-11-04T08:28:38;11.45;;;3.83;;
69401;SDS011;56589;51.992;5.924;2022-11-04T08:31:06;14.25;;;4.05;;
69401;SDS011;56589;51.992;5.924;2022-11-04T08:33:38;14.57;;;4.15;;
69401;SDS011;56589;51.992;5.924;2022-11-04T08:36:05;8.48;;;4.30;;
69401;SDS011;56589;51.992;5.924;2022-11-04T08:38:34;11.00;;;4.78;;
69401;SDS011;56589;51.992;5.924;2022-11-04T08:41:01;12.65;;;4.53;;
69401;SDS011;56589;51.992;5.924;2022-11-04T08:43:29;11.30;;;4.47;;
69401;SDS011;56589;51.992;5.924;2022-11-04T08:45:55;10.00;;;4.38;;
69401;SDS011;56589;51.992;5.924;2022-11-04T08:48:22;7.50;;;3.67;;
69401;SDS011;56589;51.992;5.924;2022-11-04T08:50:51;10.90;;;3.05;;
69401;SDS011;56589;51.992;5.924;2022-11-04T08:53:19;12.27;;;4.32;;
69401;SDS011;56589;51.992;5.924;2022-11-04T08:55:45;12.52;;;3.88;;
69401;SDS011;56589;51.992;5.924;2022-11-04T08:58:12;18.13;;;3.70;;
69401;SDS011;56589;51.992;5.924;2022-11-04T09:00:38;8.40;;;3.45;;
69401;SDS011;56589;51.992;5.924;2022-11-04T09:03:04;10.15;;;3.58;;
69401;SDS011;56589;51.992;5.924;2022-11-04T09:05:30;11.00;;;4.25;;
69401;SDS011;56589;51.992;5.924;2022-11-04T09:07:59;9.95;;;3.58;;
69401;SDS011;56589;51.992;5.924;2022-11-04T09:10:24;10.13;;;3.70;;
69401;SDS011;56589;51.992;5.924;2022-11-04T09:12:50;10.10;;;4.13;;
69401;SDS011;56589;51.992;5.924;2022-11-04T09:15:16;11.40;;;3.50;;
69401;SDS011;56589;51.992;5.924;2022-11-04T09:17:42;8.45;;;3.83;;
69401;SDS011;56589;51.992;5.924;2022-11-04T09:20:08;10.65;;;4.30;;
69401;SDS011;56589;51.992;5.924;2022-11-04T09:22:34;8.98;;;3.75;;
69401;SDS011;56589;51.992;5.924;2022-11-04T09:25:03;10.13;;;3.55;;
69401;SDS011;56589;51.992;5.924;2022-11-04T09:27:29;9.00;;;4.10;;
69401;SDS011;56589;51.992;5.924;2022-11-04T09:29:55;9.80;;;4.28;;
69401;SDS011;56589;51.992;5.924;2022-11-04T09:32:21;15.77;;;4.30;;
69401;SDS011;56589;51.992;5.924;2022-11-04T09:34:47;12.38;;;4.32;;
69401;SDS011;56589;51.992;5.924;2022-11-04T09:37:12;9.80;;;4.10;;
69401;SDS011;56589;51.992;5.924;2022-11-04T09:39:38;13.25;;;5.85;;
69401;SDS011;56589;51.992;5.924;2022-11-04T09:42:12;12.20;;;5.80;;
69401;SDS011;56589;51.992;5.924;2022-11-04T09:45:08;11.93;;;6.35;;
69401;SDS011;56589;51.992;5.924;2022-11-04T09:47:39;10.32;;;5.22;;
69401;SDS011;56589;51.992;5.924;2022-11-04T09:50:13;11.50;;;5.60;;
69401;SDS011;56589;51.992;5.924;2022-11-04T09:52:47;12.02;;;5.35;;
69401;SDS011;56589;51.992;5.924;2022-11-04T09:55:22;10.65;;;5.60;;
69401;SDS011;56589;51.992;5.924;2022-11-04T09:57:59;16.60;;;6.78;;
69401;SDS011;56589;51.992;5.924;2022-11-04T10:00:25;12.32;;;5.38;;
69401;SDS011;56589;51.992;5.924;2022-11-04T10:03:02;13.80;;;4.97;;
69401;SDS011;56589;51.992;5.924;2022-11-04T10:05:51;11.82;;;5.18;;
69401;SDS011;56589;51.992;5.924;2022-11-04T10:08:42;13.98;;;6.60;;
69401;SDS011;56589;51.992;5.924;2022-11-04T10:11:27;14.68;;;7.10;;
69401;SDS011;56589;51.992;5.924;2022-11-04T10:14:09;11.60;;;5.90;;
69401;SDS011;56589;51.992;5.924;2022-11-04T10:17:02;10.63;;;6.97;;
69401;SDS011;56589;51.992;5.924;2022-11-04T10:19:51;11.30;;;6.63;;
69401;SDS011;56589;51.992;5.924;2022-11-04T10:22:50;14.82;;;6.57;;
69401;SDS011;56589;51.992;5.924;2022-11-04T10:25:22;12.50;;;7.00;;
69401;SDS011;56589;51.992;5.924;2022-11-04T10:27:56;11.55;;;6.50;;
69401;SDS011;56589;51.992;5.924;2022-11-04T10:30:26;16.58;;;7.38;;
69401;SDS011;56589;51.992;5.924;2022-11-04T10:32:56;16.80;;;8.25;;
69401;SDS011;56589;51.992;5.924;2022-11-04T10:35:34;11.98;;;7.13;;
69401;SDS011;56589;51.992;5.924;2022-11-04T10:38:10;18.25;;;6.57;;
69401;SDS011;56589;51.992;5.924;2022-11-04T10:40:45;14.00;;;7.70;;
69401;SDS011;56589;51.992;5.924;2022-11-04T10:43:14;16.40;;;7.53;;
69401;SDS011;56589;51.992;5.924;2022-11-04T10:46:04;21.38;;;8.50;;
69401;SDS011;56589;51.992;5.924;2022-11-04T10:48:53;17.08;;;7.65;;
69401;SDS011;56589;51.992;5.924;2022-11-04T10:51:28;12.23;;;7.30;;
69401;SDS011;56589;51.992;5.924;2022-11-04T10:53:54;12.40;;;7.40;;
69401;SDS011;56589;51.992;5.924;2022-11-04T10:56:27;17.50;;;7.47;;
69401;SDS011;56589;51.992;5.924;2022-11-04T10:59:08;12.85;;;7.05;;
69401;SDS011;56589;51.992;5.924;2022-11-04T11:01:50;11.70;;;6.82;;
69401;SDS011;56589;51.992;5.924;2022-11-04T11:04:24;17.73;;;7.38;;
69401;SDS011;56589;51.992;5.924;2022-11-04T11:06:53;14.50;;;6.78;;
69401;SDS011;56589;51.992;5.924;2022-11-04T11:09:22;12.07;;;7.90;;
69401;SDS011;56589;51.992;5.924;2022-11-04T11:11:52;18.33;;;7.68;;
69401;SDS011;56589;51.992;5.924;2022-11-04T11:14:29;15.48;;;7.35;;
69401;SDS011;56589;51.992;5.924;2022-11-04T11:19:47;13.15;;;7.10;;
69401;SDS011;56589;51.992;5.924;2022-11-04T11:22:29;40.20;;;12.82;;
69401;SDS011;56589;51.992;5.924;2022-11-04T11:25:13;11.85;;;8.23;;
69401;SDS011;56589;51.992;5.924;2022-11-04T11:27:48;17.08;;;10.40;;
69401;SDS011;56589;51.992;5.924;2022-11-04T11:30:18;16.77;;;9.43;;
69401;SDS011;56589;51.992;5.924;2022-11-04T11:32:55;10.40;;;7.70;;
69401;SDS011;56589;51.992;5.924;2022-11-04T11:35:27;14.38;;;7.10;;
69401;SDS011;56589;51.992;5.924;2022-11-04T11:37:59;14.40;;;7.65;;
69401;SDS011;56589;51.992;5.924;2022-11-04T11:40:27;13.68;;;7.13;;
69401;SDS011;56589;51.992;5.924;2022-11-04T11:42:56;16.15;;;7.60;;
69401;SDS011;56589;51.992;5.924;2022-11-04T11:45:24;13.85;;;7.63;;
69401;SDS011;56589;51.992;5.924;2022-11-04T11:47:54;18.88;;;8.23;;
69401;SDS011;56589;51.992;5.924;2022-11-04T11:50:23;12.93;;;7.28;;
69401;SDS011;56589;51.992;5.924;2022-11-04T11:52:51;13.55;;;8.55;;
69401;SDS011;56589;51.992;5.924;2022-11-04T11:55:18;12.85;;;7.25;;
69401;SDS011;56589;51.992;5.924;2022-11-04T11:57:51;12.45;;;8.18;;
69401;SDS011;56589;51.992;5.924;2022-11-04T12:00:35;12.48;;;6.93;;
69401;SDS011;56589;51.992;5.924;2022-11-04T12:03:13;15.40;;;7.75;;
69401;SDS011;56589;51.992;5.924;2022-11-04T12:05:50;14.23;;;7.15;;
69401;SDS011;56589;51.992;5.924;2022-11-04T12:08:41;17.02;;;7.82;;
69401;SDS011;56589;51.992;5.924;2022-11-04T12:11:27;13.85;;;7.70;;
69401;SDS011;56589;51.992;5.924;2022-11-04T12:14:04;12.05;;;7.22;;
69401;SDS011;56589;51.992;5.924;2022-11-04T12:16:42;19.08;;;9.60;;
69401;SDS011;56589;51.992;5.924;2022-11-04T12:19:37;15.50;;;8.15;;
69401;SDS011;56589;51.992;5.924;2022-11-04T12:22:32;19.20;;;9.07;;
69401;SDS011;56589;51.992;5.924;2022-11-04T12:25:13;14.73;;;8.73;;
69401;SDS011;56589;51.992;5.924;2022-11-04T12:27:54;14.68;;;8.48;;
69401;SDS011;56589;51.992;5.924;2022-11-04T12:30:36;10.60;;;8.10;;
69401;SDS011;56589;51.992;5.924;2022-11-04T12:33:20;14.98;;;8.48;;
69401;SDS011;56589;51.992;5.924;2022-11-04T12:36:05;12.05;;;8.35;;
69401;SDS011;56589;51.992;5.924;2022-11-04T12:41:44;14.75;;;8.48;;
69401;SDS011;56589;51.992;5.924;2022-11-04T12:44:31;11.30;;;8.45;;
69401;SDS011;56589;51.992;5.924;2022-11-04T12:47:05;13.82;;;8.65;;
69401;SDS011;56589;51.992;5.924;2022-11-04T12:50:02;13.80;;;8.68;;
69401;SDS011;56589;51.992;5.924;2022-11-04T12:52:48;12.57;;;7.68;;
69401;SDS011;56589;51.992;5.924;2022-11-04T12:55:34;13.57;;;8.88;;
69401;SDS011;56589;51.992;5.924;2022-11-04T12:58:16;14.27;;;8.57;;
69401;SDS011;56589;51.992;5.924;2022-11-04T13:00:59;13.48;;;8.75;;
69401;SDS011;56589;51.992;5.924;2022-11-04T13:03:32;12.23;;;8.30;;
69401;SDS011;56589;51.992;5.924;2022-11-04T13:06:14;14.70;;;7.97;;
69401;SDS011;56589;51.992;5.924;2022-11-04T13:08:52;12.68;;;8.57;;
69401;SDS011;56589;51.992;5.924;2022-11-04T13:11:28;14.82;;;9.30;;
69401;SDS011;56589;51.992;5.924;2022-11-04T13:14:01;13.95;;;9.13;;
69401;SDS011;56589;51.992;5.924;2022-11-04T13:16:34;13.07;;;9.48;;
69401;SDS011;56589;51.992;5.924;2022-11-04T13:19:07;14.65;;;9.25;;
69401;SDS011;56589;51.992;5.924;2022-11-04T13:21:46;16.10;;;9.40;;
69401;SDS011;56589;51.992;5.924;2022-11-04T13:24:16;14.65;;;10.35;;
69401;SDS011;56589;51.992;5.924;2022-11-04T13:26:51;14.18;;;9.35;;
69401;SDS011;56589;51.992;5.924;2022-11-04T13:29:17;14.65;;;9.75;;
69401;SDS011;56589;51.992;5.924;2022-11-04T13:31:48;15.77;;;9.13;;
69401;SDS011;56589;51.992;5.924;2022-11-04T13:34:25;13.70;;;8.95;;
69401;SDS011;56589;51.992;5.924;2022-11-04T13:37:07;15.65;;;8.90;;
69401;SDS011;56589;51.992;5.924;2022-11-04T13:39:49;14.70;;;8.57;;
69401;SDS011;56589;51.992;5.924;2022-11-04T13:45:44;12.95;;;8.05;;
69401;SDS011;56589;51.992;5.924;2022-11-04T13:48:15;11.68;;;7.57;;
69401;SDS011;56589;51.992;5.924;2022-11-04T13:50:53;16.98;;;8.75;;
69401;SDS011;56589;51.992;5.924;2022-11-04T13:53:39;16.23;;;9.90;;
69401;SDS011;56589;51.992;5.924;2022-11-04T13:56:11;15.35;;;9.10;;
69401;SDS011;56589;51.992;5.924;2022-11-04T13:58:53;11.35;;;8.07;;
69401;SDS011;56589;51.992;5.924;2022-11-04T14:01:25;13.82;;;8.95;;
69401;SDS011;56589;51.992;5.924;2022-11-04T14:04:00;14.35;;;9.15;;
69401;SDS011;56589;51.992;5.924;2022-11-04T14:06:46;11.95;;;9.38;;
69401;SDS011;56589;51.992;5.924;2022-11-04T14:09:23;14.38;;;8.45;;
69401;SDS011;56589;51.992;5.924;2022-11-04T14:12:22;14.48;;;8.93;;
69401;SDS011;56589;51.992;5.924;2022-11-04T14:18:25;14.38;;;8.73;;
69401;SDS011;56589;51.992;5.924;2022-11-04T14:21:04;15.95;;;8.07;;
69401;SDS011;56589;51.992;5.924;2022-11-04T14:23:32;13.43;;;8.15;;
69401;SDS011;56589;51.992;5.924;2022-11-04T14:26:01;12.68;;;8.45;;
69401;SDS011;56589;51.992;5.924;2022-11-04T14:28:32;16.35;;;8.52;;
69401;SDS011;56589;51.992;5.924;2022-11-04T14:31:00;15.55;;;9.05;;
69401;SDS011;56589;51.992;5.924;2022-11-04T14:33:32;13.73;;;8.10;;
69401;SDS011;56589;51.992;5.924;2022-11-04T14:38:54;13.88;;;8.38;;
69401;SDS011;56589;51.992;5.924;2022-11-04T14:44:33;16.92;;;8.77;;
69401;SDS011;56589;51.992;5.924;2022-11-04T14:47:13;13.25;;;8.60;;
69401;SDS011;56589;51.992;5.924;2022-11-04T14:49:44;13.77;;;9.05;;
69401;SDS011;56589;51.992;5.924;2022-11-04T14:52:14;13.43;;;7.80;;
69401;SDS011;56589;51.992;5.924;2022-11-04T14:54:50;7.38;;;3.80;;
69401;SDS011;56589;51.992;5.924;2022-11-04T14:57:22;6.53;;;3.33;;
69401;SDS011;56589;51.992;5.924;2022-11-04T14:59:51;3.67;;;1.80;;
69401;SDS011;56589;51.992;5.924;2022-11-04T15:02:17;2.28;;;1.20;;
69401;SDS011;56589;51.992;5.924;2022-11-04T15:04:48;3.95;;;1.55;;
69401;SDS011;56589;51.992;5.924;2022-11-04T15:10:19;2.08;;;0.63;;
69401;SDS011;56589;51.992;5.924;2022-11-04T15:12:47;1.77;;;0.88;;
69401;SDS011;56589;51.992;5.924;2022-11-04T15:15:27;1.40;;;0.60;;
69401;SDS011;56589;51.992;5.924;2022-11-04T15:18:02;2.13;;;0.77;;
69401;SDS011;56589;51.992;5.924;2022-11-04T15:20:32;1.75;;;0.45;;
69401;SDS011;56589;51.992;5.924;2022-11-04T15:23:05;1.97;;;0.67;;
69401;SDS011;56589;51.992;5.924;2022-11-04T15:28:14;3.08;;;0.50;;
69401;SDS011;56589;51.992;5.924;2022-11-04T15:30:52;3.67;;;0.70;;